»·PEaware :: N717TS KMRY-KSBP

N717TS :: KMRY-KSBP

FLIGHT INFORMATION

Flight Status: Arrived
Operator: Privately registered:
United States
More flights under this callsign
Pilot: Ty S. (2873)
Aircraft: CIRRUS SR-22
(SR22)
More flights by this aircraft type
Origin: KMRY Monterey Peninsula
United States
Destination: KSBP San Luis Co Regl
United States
More flights between these airports :: More routes between these airports
Route: +MRY5 SHOEY SNS V25 KIKII
File this flight plan on PilotEdge
Remarks:
Altitude:
(Current/Filed)
9,000ft
Speed:
(Current/Filed)
180kts
Departed: 05-Jun-20 04:13 PM
Arrived: 05-Jun-20 05:12 PM
Distance/Time
Traveled:
100nm/0:59
Distance/Time
To Go:
Arrived

Flight Plot

Page will automatically refresh every two minutes.

Flight plan parsing failed; only flown route is shown


Map Options




Map Legend


Flown Route
Filed Route
Departure Airport
Arrival Airport
Navaid (VOR, NDB)
Fix

Horizontal Profiles

Position Reports

Time Latitude Longitude Heading Altitude Ground
Speed
05-Jun-20 15:44 36.588734 -121.855674 345 259ft 0kts
05-Jun-20 15:45 36.588734 -121.855674 345 259ft 0kts
05-Jun-20 15:46 36.588734 -121.855674 345 259ft 0kts
05-Jun-20 15:47 36.588734 -121.855674 345 259ft 0kts
05-Jun-20 15:48 36.588734 -121.855674 345 259ft 0kts
05-Jun-20 15:49 36.588734 -121.855674 345 259ft 0kts
05-Jun-20 15:50 36.588734 -121.855674 345 259ft 0kts
05-Jun-20 15:51 36.588734 -121.855674 345 259ft 0kts
05-Jun-20 15:52 36.588734 -121.855674 345 259ft 0kts
05-Jun-20 15:53 36.588734 -121.855674 345 259ft 0kts
05-Jun-20 15:54 36.588734 -121.855674 345 259ft 0kts
05-Jun-20 15:55 36.588734 -121.855674 345 259ft 0kts
05-Jun-20 15:56 36.588734 -121.855674 345 259ft 0kts
05-Jun-20 15:57 36.588734 -121.855674 345 259ft 0kts
05-Jun-20 15:58 36.588734 -121.855674 345 259ft 0kts
05-Jun-20 15:59 36.588734 -121.855674 345 259ft 0kts
05-Jun-20 16:00 36.588734 -121.855674 345 259ft 0kts
05-Jun-20 16:01 36.588745 -121.855677 344 259ft 0kts
05-Jun-20 16:02 36.588749 -121.855679 344 259ft 0kts
05-Jun-20 16:03 36.589040 -121.852935 111 259ft 13kts
05-Jun-20 16:04 36.587453 -121.848227 111 259ft 18kts
05-Jun-20 16:05 36.585433 -121.842654 112 259ft 16kts
05-Jun-20 16:06 36.583778 -121.837796 119 259ft 14kts
05-Jun-20 16:07 36.582818 -121.836160 77 259ft 0kts
05-Jun-20 16:08 36.582818 -121.836159 77 259ft 0kts
05-Jun-20 16:09 36.582818 -121.836159 77 259ft 0kts
05-Jun-20 16:10 36.582814 -121.834697 95 259ft 6kts
05-Jun-20 16:11 36.582810 -121.834644 93 259ft 0kts
05-Jun-20 16:12 36.585310 -121.839505 291 325ft 86kts
05-Jun-20 16:13 36.596088 -121.874847 301 1230ft 117kts
05-Jun-20 16:14 36.627244 -121.888873 338 2114ft 124kts
05-Jun-20 16:15 36.660102 -121.901966 337 3101ft 126kts
05-Jun-20 16:16 36.694019 -121.915791 337 4080ft 130kts
05-Jun-20 16:17 36.715494 -121.947374 285 5159ft 127kts
05-Jun-20 16:18 36.739382 -121.936381 103 6343ft 145kts
05-Jun-20 16:19 36.726315 -121.889253 105 7575ft 147kts
05-Jun-20 16:20 36.715686 -121.839531 105 8828ft 149kts
05-Jun-20 16:21 36.703299 -121.782927 105 8998ft 185kts
05-Jun-20 16:22 36.689517 -121.719982 105 8994ft 192kts
05-Jun-20 16:23 36.675695 -121.656992 105 8990ft 182kts
05-Jun-20 16:24 36.657315 -121.600003 135 8989ft 177kts
05-Jun-20 16:25 36.619974 -121.559524 143 8983ft 180kts
05-Jun-20 16:26 36.581059 -121.520380 143 8983ft 179kts
05-Jun-20 16:27 36.542208 -121.481595 143 8984ft 179kts
05-Jun-20 16:28 36.503304 -121.442830 143 8983ft 179kts
05-Jun-20 16:29 36.464216 -121.403933 143 8983ft 179kts
05-Jun-20 16:30 36.425272 -121.365231 143 8983ft 179kts
05-Jun-20 16:31 36.386128 -121.326380 144 8980ft 179kts
05-Jun-20 16:32 36.347264 -121.287858 144 8980ft 179kts
05-Jun-20 16:33 36.308410 -121.249397 144 8981ft 179kts
05-Jun-20 16:34 36.269449 -121.210881 144 8981ft 179kts
05-Jun-20 16:35 36.230469 -121.172404 144 8976ft 179kts
05-Jun-20 16:36 36.191222 -121.133711 143 8967ft 181kts
05-Jun-20 16:37 36.151647 -121.094743 143 8958ft 182kts
05-Jun-20 16:38 36.111920 -121.055678 143 8944ft 183kts
05-Jun-20 16:39 36.072130 -121.016607 143 8934ft 183kts
05-Jun-20 16:40 36.031933 -120.977189 142 8928ft 184kts
05-Jun-20 16:41 35.991879 -120.937962 142 8927ft 184kts
05-Jun-20 16:42 35.951624 -120.898594 142 8927ft 184kts
05-Jun-20 16:43 35.911321 -120.859236 142 8928ft 184kts
05-Jun-20 16:44 35.871426 -120.820329 142 8926ft 184kts
05-Jun-20 16:45 35.831217 -120.781169 142 8926ft 184kts
05-Jun-20 16:46 35.791013 -120.742064 142 8926ft 184kts
05-Jun-20 16:47 35.750691 -120.702897 142 8926ft 184kts
05-Jun-20 16:48 35.710395 -120.663820 142 8927ft 184kts
05-Jun-20 16:49 35.669778 -120.625371 148 8926ft 184kts
05-Jun-20 16:50 35.626247 -120.592503 149 8927ft 184kts
05-Jun-20 16:52 35.582505 -120.559818 149 8893ft 185kts
05-Jun-20 16:53 35.536305 -120.525353 150 8403ft 199kts
05-Jun-20 16:54 35.489039 -120.489955 150 7910ft 198kts
05-Jun-20 16:55 35.442092 -120.455127 150 7416ft 196kts
05-Jun-20 16:56 35.395732 -120.421229 149 6977ft 190kts
05-Jun-20 16:57 35.351869 -120.389670 149 6981ft 178kts
05-Jun-20 16:58 35.309046 -120.359137 149 6981ft 177kts
05-Jun-20 16:59 35.266227 -120.328734 150 6874ft 179kts
05-Jun-20 17:00 35.222631 -120.297916 150 6374ft 181kts
05-Jun-20 17:01 35.179373 -120.267556 150 5875ft 178kts
05-Jun-20 17:02 35.145865 -120.288281 260 5352ft 163kts
05-Jun-20 17:03 35.136613 -120.342525 261 4852ft 161kts
05-Jun-20 17:04 35.127595 -120.395792 260 4314ft 161kts
05-Jun-20 17:05 35.128071 -120.447528 299 3899ft 150kts
05-Jun-20 17:06 35.152272 -120.491941 305 3188ft 160kts
05-Jun-20 17:07 35.175826 -120.533229 305 2491ft 113kts
05-Jun-20 17:08 35.191495 -120.560467 303 1885ft 92kts
05-Jun-20 17:08 35.203643 -120.581594 305 1417ft 89kts
05-Jun-20 17:10 35.220166 -120.610628 304 779ft 82kts
05-Jun-20 17:11 35.231818 -120.631345 305 307ft 72kts
05-Jun-20 17:11 35.237779 -120.640888 85 216ft 7kts
05-Jun-20 17:13 35.237584 -120.637096 27 216ft 2kts
05-Jun-20 17:14 35.236337 -120.636434 212 216ft 0kts
05-Jun-20 17:14 35.236337 -120.636434 212 216ft 0kts
05-Jun-20 17:15 35.236337 -120.636434 212 216ft 0kts
05-Jun-20 17:16 35.236337 -120.636434 212 216ft 0kts
05-Jun-20 17:17 35.236337 -120.636434 212 216ft 0kts
05-Jun-20 17:18 35.236337 -120.636434 212 216ft 0kts
05-Jun-20 17:19 35.236337 -120.636434 212 216ft 0kts
05-Jun-20 17:20 35.236337 -120.636434 212 216ft 0kts
05-Jun-20 17:21 35.236337 -120.636434 212 216ft 0kts
05-Jun-20 17:22 35.236337 -120.636434 212 216ft 0kts

Navigation Log

Ident Type
Flight plan parsing failed, navigation log unavailable